Time;durP1;ratioP1;P1;durP2;ratioP2;P2;SDS_P1;SDS_P2;PMS_P1;PMS_P2;Temp;Humidity;BMP_temperature;BMP_pressure;BME280_temperature;BME280_humidity;BME280_pressure;Samples;Min_cycle;Max_cycle;Signal;HPM_P1;HPM_P2
2024/02/23 00:00:13;;;;;;;1.57;0.90;;;6.20;99.90;;;;;;5102228;28;20854;-81
2024/02/23 00:02:40;;;;;;;1.60;1.10;;;6.20;99.90;;;;;;5100684;28;20555;-82
2024/02/23 00:05:07;;;;;;;1.70;0.90;;;6.20;99.90;;;;;;5100404;28;20971;-81
2024/02/23 00:07:34;;;;;;;1.87;1.00;;;6.10;99.90;;;;;;5098736;28;20932;-81
2024/02/23 00:10:01;;;;;;;1.60;0.90;;;6.00;99.90;;;;;;5096810;28;20485;-82
2024/02/23 00:12:29;;;;;;;1.40;0.90;;;5.80;99.90;;;;;;5096895;28;20990;-80
2024/02/23 00:14:56;;;;;;;1.50;0.90;;;5.80;99.90;;;;;;5090561;28;20553;-81
2024/02/23 00:17:23;;;;;;;1.90;0.80;;;5.70;99.90;;;;;;5091674;28;20461;-82
2024/02/23 00:19:52;;;;;;;1.57;0.87;;;5.70;99.90;;;;;;5096812;28;20974;-82
2024/02/23 00:22:19;;;;;;;1.50;0.87;;;5.80;99.90;;;;;;5096547;28;20479;-82
2024/02/23 00:24:46;;;;;;;2.23;0.90;;;5.80;99.90;;;;;;5096132;28;20973;-83
2024/02/23 00:27:12;;;;;;;1.73;1.03;;;5.80;99.90;;;;;;5096114;28;20494;-81
2024/02/23 00:29:41;;;;;;;1.63;0.87;;;5.80;99.90;;;;;;5096913;28;20507;-81
2024/02/23 00:32:08;;;;;;;1.60;0.80;;;5.80;99.90;;;;;;5098039;28;20874;-80
2024/02/23 00:34:35;;;;;;;1.40;0.70;;;5.80;99.90;;;;;;5099203;28;20471;-82
2024/02/23 00:37:03;;;;;;;1.83;1.00;;;5.80;99.90;;;;;;5097376;28;20456;-82
2024/02/23 00:39:31;;;;;;;1.70;0.90;;;5.80;99.90;;;;;;5096846;28;20444;-82
2024/02/23 00:41:58;;;;;;;1.70;0.80;;;5.80;99.90;;;;;;5096746;28;20533;-83
2024/02/23 00:44:25;;;;;;;1.40;0.80;;;5.80;99.90;;;;;;5095806;28;20493;-84
2024/02/23 00:46:53;;;;;;;1.70;0.70;;;5.80;99.90;;;;;;5096749;28;20512;-83
2024/02/23 00:49:20;;;;;;;1.43;1.07;;;5.90;99.90;;;;;;5097026;28;20460;-83
2024/02/23 00:51:46;;;;;;;2.07;1.37;;;5.90;99.90;;;;;;5097012;28;20480;-84
2024/02/23 00:54:13;;;;;;;1.50;0.90;;;6.00;99.90;;;;;;5096744;28;20463;-83
2024/02/23 00:56:40;;;;;;;1.50;0.90;;;6.10;99.90;;;;;;5099662;28;20446;-81
2024/02/23 00:59:07;;;;;;;3.03;1.10;;;6.20;99.90;;;;;;5099874;28;20479;-81
2024/02/23 01:01:33;;;;;;;2.00;1.00;;;6.20;99.90;;;;;;5099607;28;20495;-83
2024/02/23 01:04:02;;;;;;;2.20;1.00;;;6.30;99.90;;;;;;5093603;28;20533;-83
2024/02/23 01:06:29;;;;;;;2.10;1.20;;;6.30;99.90;;;;;;5095417;28;20824;-81
2024/02/23 01:08:56;;;;;;;2.13;1.17;;;6.30;99.90;;;;;;5096609;28;20450;-82
2024/02/23 01:11:22;;;;;;;4.43;1.43;;;6.20;99.90;;;;;;5096787;28;20454;-82
2024/02/23 01:13:49;;;;;;;2.20;0.87;;;6.20;99.90;;;;;;5103324;28;20447;-83
2024/02/23 01:16:17;;;;;;;2.77;1.33;;;6.20;99.90;;;;;;5096370;28;20464;-80
2024/02/23 01:18:43;;;;;;;2.10;1.30;;;6.20;99.90;;;;;;5098014;28;20453;-83
2024/02/23 01:21:12;;;;;;;3.80;1.50;;;6.10;99.90;;;;;;5099299;28;20512;-82
2024/02/23 01:23:39;;;;;;;5.20;1.20;;;6.10;99.90;;;;;;5097001;28;20520;-82
2024/02/23 01:26:05;;;;;;;1.60;1.00;;;6.10;99.90;;;;;;5095558;28;20465;-82
2024/02/23 01:28:32;;;;;;;1.90;0.90;;;6.00;99.90;;;;;;5096619;28;20862;-81
2024/02/23 01:30:59;;;;;;;2.37;1.00;;;6.00;99.90;;;;;;5104759;28;20479;-84
2024/02/23 01:33:26;;;;;;;1.80;1.50;;;5.90;99.90;;;;;;5096526;28;20510;-83
2024/02/23 01:35:53;;;;;;;4.80;1.17;;;5.90;99.90;;;;;;5086638;28;20479;-82
2024/02/23 01:38:22;;;;;;;1.40;0.83;;;6.00;99.90;;;;;;5095532;28;20492;-82
2024/02/23 01:40:48;;;;;;;1.70;0.90;;;6.10;99.90;;;;;;5101611;28;20457;-83
2024/02/23 01:43:15;;;;;;;3.20;1.00;;;6.10;99.90;;;;;;5096581;28;20487;-84
2024/02/23 01:45:42;;;;;;;3.23;1.07;;;6.20;99.90;;;;;;5096271;28;20446;-82
2024/02/23 01:48:09;;;;;;;3.20;1.10;;;6.20;99.90;;;;;;5100040;28;20491;-83
2024/02/23 01:50:36;;;;;;;1.40;0.80;;;6.30;99.90;;;;;;5097163;28;20536;-83
2024/02/23 01:53:04;;;;;;;3.10;0.77;;;6.40;99.90;;;;;;5105468;28;20572;-81
2024/02/23 01:55:32;;;;;;;2.63;1.10;;;6.40;99.90;;;;;;5094637;28;20483;-82
2024/02/23 01:58:00;;;;;;;2.63;1.30;;;6.40;99.90;;;;;;5114064;28;20453;-82
2024/02/23 02:00:27;;;;;;;1.80;0.93;;;6.50;99.90;;;;;;5095455;28;21010;-81
2024/02/23 02:02:54;;;;;;;1.40;0.80;;;6.50;99.90;;;;;;5099260;28;20513;-83
2024/02/23 02:05:21;;;;;;;1.97;1.10;;;6.50;99.90;;;;;;5097601;28;20466;-81
2024/02/23 02:07:50;;;;;;;1.50;0.80;;;6.50;99.90;;;;;;5093946;28;20583;-81
2024/02/23 02:10:18;;;;;;;1.90;0.90;;;6.40;99.90;;;;;;5095557;28;20459;-80
2024/02/23 02:12:46;;;;;;;2.70;1.00;;;6.40;99.90;;;;;;5095115;28;20477;-81
2024/02/23 02:15:13;;;;;;;3.00;0.93;;;6.30;99.90;;;;;;5094271;28;20461;-81
2024/02/23 02:17:40;;;;;;;2.03;1.00;;;6.30;99.90;;;;;;5094541;28;20543;-82
2024/02/23 02:20:11;;;;;;;3.53;1.00;;;6.30;99.90;;;;;;5094722;28;20898;-82
2024/02/23 02:22:38;;;;;;;2.13;0.80;;;6.20;99.90;;;;;;5093878;28;20566;-81
2024/02/23 02:25:06;;;;;;;4.40;0.90;;;6.20;99.90;;;;;;5088529;28;20452;-84
2024/02/23 02:27:33;;;;;;;1.70;0.90;;;6.20;99.90;;;;;;5085064;28;20867;-81
2024/02/23 02:30:02;;;;;;;3.30;1.03;;;6.30;99.90;;;;;;5094280;28;20460;-84
2024/02/23 02:32:29;;;;;;;3.93;1.27;;;6.30;99.90;;;;;;5094213;28;20486;-82
2024/02/23 02:34:56;;;;;;;2.57;1.07;;;6.30;99.90;;;;;;5093744;28;20541;-82
2024/02/23 02:37:23;;;;;;;2.50;1.00;;;6.20;99.90;;;;;;5089889;28;20987;-81
2024/02/23 02:39:49;;;;;;;3.00;0.97;;;6.30;99.90;;;;;;5094330;28;20457;-82
2024/02/23 02:42:16;;;;;;;2.70;1.00;;;6.40;99.90;;;;;;5094143;28;20527;-81
2024/02/23 02:44:46;;;;;;;3.30;1.00;;;6.50;99.90;;;;;;5094051;28;20461;-81
2024/02/23 02:47:14;;;;;;;4.63;1.03;;;6.50;99.90;;;;;;5094669;28;20506;-84
2024/02/23 02:49:41;;;;;;;1.87;1.00;;;6.50;99.90;;;;;;5095368;28;20536;-81
2024/02/23 02:52:09;;;;;;;3.90;1.20;;;6.50;99.90;;;;;;5094210;28;20477;-82
2024/02/23 02:54:36;;;;;;;2.10;0.90;;;6.50;99.90;;;;;;5094212;28;20461;-81
2024/02/23 02:57:02;;;;;;;5.53;1.30;;;6.50;99.90;;;;;;5093777;28;20459;-81
2024/02/23 02:59:29;;;;;;;2.47;0.97;;;6.50;99.90;;;;;;5094502;28;20496;-81
2024/02/23 03:01:57;;;;;;;1.97;1.00;;;6.40;99.90;;;;;;5094627;28;20470;-81
2024/02/23 03:04:25;;;;;;;3.10;0.90;;;6.40;99.90;;;;;;5094461;28;20454;-82
2024/02/23 03:06:51;;;;;;;4.93;2.23;;;6.40;99.90;;;;;;5093277;28;20545;-80
2024/02/23 03:09:18;;;;;;;3.97;1.00;;;6.40;99.90;;;;;;5098336;28;20941;-81
2024/02/23 03:11:45;;;;;;;3.40;1.23;;;6.30;99.90;;;;;;5098333;28;20477;-82
2024/02/23 03:14:12;;;;;;;5.60;1.10;;;6.30;99.90;;;;;;5098150;28;20452;-82
2024/02/23 03:16:39;;;;;;;3.00;1.10;;;6.30;99.90;;;;;;5096352;28;20464;-81
2024/02/23 03:19:07;;;;;;;1.90;0.90;;;6.20;99.90;;;;;;5099577;28;20451;-83
2024/02/23 03:21:36;;;;;;;3.27;0.90;;;6.20;99.90;;;;;;5098117;28;20457;-83
2024/02/23 03:24:03;;;;;;;1.70;0.90;;;6.10;99.90;;;;;;5097189;28;20458;-82
2024/02/23 03:26:29;;;;;;;3.23;0.90;;;6.00;99.90;;;;;;5096002;28;20454;-81
2024/02/23 03:28:56;;;;;;;3.53;1.13;;;6.00;99.90;;;;;;5097463;28;20495;-82
2024/02/23 03:31:23;;;;;;;1.90;1.00;;;5.90;99.90;;;;;;5096798;28;20481;-80
2024/02/23 03:33:50;;;;;;;4.03;1.00;;;5.90;99.90;;;;;;5096992;28;20454;-81
2024/02/23 03:36:16;;;;;;;2.23;0.80;;;5.90;99.90;;;;;;5094048;28;20828;-81
2024/02/23 03:38:45;;;;;;;1.50;0.80;;;5.90;99.90;;;;;;5096241;28;20461;-82
2024/02/23 03:41:11;;;;;;;3.57;1.10;;;5.90;99.90;;;;;;5093951;28;20468;-81
2024/02/23 03:43:39;;;;;;;1.40;0.70;;;6.00;99.90;;;;;;5096697;28;20825;-83
2024/02/23 03:46:07;;;;;;;4.60;1.10;;;6.00;99.90;;;;;;5096281;28;20460;-84
2024/02/23 03:48:34;;;;;;;1.80;0.70;;;6.00;99.90;;;;;;5085537;28;20490;-80
2024/02/23 03:51:01;;;;;;;2.40;0.90;;;6.10;99.90;;;;;;5096571;28;20462;-84
2024/02/23 03:53:27;;;;;;;3.90;0.97;;;6.20;99.90;;;;;;5097000;28;20469;-79
2024/02/23 03:55:55;;;;;;;4.13;1.00;;;6.20;99.90;;;;;;5096396;28;20456;-79
2024/02/23 03:58:22;;;;;;;3.10;1.00;;;6.20;99.90;;;;;;5096964;28;20479;-80
2024/02/23 04:00:49;;;;;;;14.00;4.10;;;6.20;99.90;;;;;;5096523;28;20461;-82
2024/02/23 04:03:16;;;;;;;2.47;0.90;;;6.30;99.90;;;;;;5097566;28;20469;-80
2024/02/23 04:05:43;;;;;;;1.70;1.10;;;6.30;99.90;;;;;;5096226;28;20493;-81
2024/02/23 04:08:09;;;;;;;4.10;1.43;;;6.30;99.90;;;;;;5086007;28;20493;-82
2024/02/23 04:10:36;;;;;;;2.20;1.00;;;6.40;99.90;;;;;;5097266;28;20453;-81
2024/02/23 04:13:05;;;;;;;3.60;0.80;;;6.30;99.90;;;;;;5097651;28;20488;-81
2024/02/23 04:15:35;;;;;;;2.43;1.00;;;6.30;99.90;;;;;;5089308;28;20532;-83
2024/02/23 04:18:02;;;;;;;2.00;1.03;;;6.40;99.90;;;;;;5095708;28;20439;-83
2024/02/23 04:20:28;;;;;;;6.60;1.20;;;6.30;99.90;;;;;;5097149;28;20463;-79
2024/02/23 04:22:55;;;;;;;6.00;1.10;;;6.40;99.90;;;;;;5097218;28;20512;-80
2024/02/23 04:25:22;;;;;;;3.40;0.90;;;6.40;99.90;;;;;;5096986;28;20446;-82
2024/02/23 04:27:49;;;;;;;1.73;0.80;;;6.50;99.90;;;;;;5096186;28;20493;-80
2024/02/23 04:30:17;;;;;;;2.53;1.10;;;6.50;99.90;;;;;;5097224;28;20465;-81
2024/02/23 04:32:44;;;;;;;5.33;1.27;;;6.40;99.90;;;;;;5090457;28;20560;-83
2024/02/23 04:35:11;;;;;;;4.40;1.10;;;6.40;99.90;;;;;;5097103;28;20460;-80
2024/02/23 04:37:38;;;;;;;3.00;0.90;;;6.40;99.90;;;;;;5094770;28;20463;-82
2024/02/23 04:40:06;;;;;;;2.10;0.90;;;6.30;99.90;;;;;;5096474;28;20882;-81
2024/02/23 04:42:33;;;;;;;6.27;1.10;;;6.30;99.90;;;;;;5088902;28;21080;-81
2024/02/23 04:45:00;;;;;;;2.17;0.83;;;6.30;99.90;;;;;;5096940;28;20441;-80
2024/02/23 04:47:32;;;;;;;2.13;0.80;;;6.30;99.90;;;;;;5096689;28;20453;-82
2024/02/23 04:49:59;;;;;;;2.20;1.00;;;6.30;99.90;;;;;;5094419;28;20918;-81
2024/02/23 04:52:26;;;;;;;3.73;1.00;;;6.40;99.90;;;;;;5097947;28;20489;-81
2024/02/23 04:54:52;;;;;;;6.90;1.17;;;6.40;99.90;;;;;;5098551;28;20457;-83
2024/02/23 04:57:19;;;;;;;2.33;1.00;;;6.40;99.90;;;;;;5093587;28;20476;-81
2024/02/23 04:59:46;;;;;;;1.80;0.93;;;6.50;99.90;;;;;;5099335;28;20445;-83
2024/02/23 05:02:13;;;;;;;3.00;0.97;;;6.50;99.90;;;;;;5092043;28;20545;-84
2024/02/23 05:04:41;;;;;;;2.87;0.70;;;6.50;99.90;;;;;;5100169;28;20443;-82
2024/02/23 05:07:08;;;;;;;3.03;1.10;;;6.50;99.90;;;;;;5095306;28;20454;-80
2024/02/23 05:09:35;;;;;;;2.70;0.90;;;6.50;99.90;;;;;;5098484;28;21011;-82
2024/02/23 05:12:01;;;;;;;1.90;0.83;;;6.50;99.90;;;;;;5097283;28;20475;-82
2024/02/23 05:14:28;;;;;;;4.57;1.30;;;6.50;99.90;;;;;;5097998;28;20541;-82
2024/02/23 05:16:55;;;;;;;5.47;0.90;;;6.50;99.90;;;;;;5097997;28;20484;-82
2024/02/23 05:19:22;;;;;;;5.53;1.10;;;6.40;99.90;;;;;;5098970;28;20461;-83
2024/02/23 05:21:50;;;;;;;3.90;1.00;;;6.40;99.90;;;;;;5100300;28;20915;-82
2024/02/23 05:24:20;;;;;;;5.73;0.80;;;6.50;99.90;;;;;;5102398;28;20497;-82
2024/02/23 05:26:47;;;;;;;3.83;0.90;;;6.40;99.90;;;;;;5096575;28;20481;-82
2024/02/23 05:29:17;;;;;;;7.10;1.00;;;6.40;99.90;;;;;;5084654;28;20489;-83
2024/02/23 05:31:49;;;;;;;5.60;1.60;;;6.40;99.90;;;;;;5102570;28;20468;-83
2024/02/23 05:34:16;;;;;;;5.20;1.07;;;6.40;99.90;;;;;;5102091;28;20460;-84
2024/02/23 05:36:43;;;;;;;2.30;0.97;;;6.40;99.90;;;;;;5097348;28;21006;-81
2024/02/23 05:39:12;;;;;;;2.30;0.87;;;6.40;99.90;;;;;;5077799;28;20485;-82
2024/02/23 05:41:39;;;;;;;5.77;1.00;;;6.50;99.90;;;;;;5095690;28;20450;-82
2024/02/23 05:44:06;;;;;;;6.93;0.97;;;6.50;99.90;;;;;;5096444;28;20492;-83
2024/02/23 05:46:33;;;;;;;3.77;1.67;;;6.50;99.90;;;;;;5094607;28;20526;-83
2024/02/23 05:49:00;;;;;;;4.60;1.43;;;6.50;99.90;;;;;;5089196;28;20486;-82
2024/02/23 05:51:29;;;;;;;3.03;0.90;;;6.40;99.90;;;;;;5096290;28;20520;-81
2024/02/23 05:53:56;;;;;;;2.53;1.00;;;6.40;99.90;;;;;;5097083;28;20545;-82
2024/02/23 05:56:24;;;;;;;3.40;1.07;;;6.40;99.90;;;;;;5095362;28;20543;-81
2024/02/23 05:58:51;;;;;;;3.00;1.30;;;6.40;99.90;;;;;;5096077;28;20456;-82
2024/02/23 06:01:18;;;;;;;3.20;0.80;;;6.30;99.90;;;;;;5096409;28;20450;-81
2024/02/23 06:03:45;;;;;;;5.80;0.90;;;6.30;99.90;;;;;;5094757;28;20484;-85
2024/02/23 06:06:12;;;;;;;5.70;1.10;;;6.20;99.90;;;;;;5096329;28;20452;-82
2024/02/23 06:08:39;;;;;;;3.13;1.00;;;6.00;99.90;;;;;;5088120;28;20489;-81
2024/02/23 06:11:06;;;;;;;5.47;1.80;;;5.90;99.90;;;;;;5098739;28;20480;-85
2024/02/23 06:13:34;;;;;;;1.80;1.10;;;5.80;99.90;;;;;;5091185;28;20469;-83
2024/02/23 06:16:01;;;;;;;5.50;1.03;;;5.80;99.90;;;;;;5095746;28;20797;-84
2024/02/23 06:18:28;;;;;;;3.40;1.30;;;5.70;99.90;;;;;;5096472;28;20450;-81
2024/02/23 06:20:55;;;;;;;3.93;1.07;;;5.70;99.90;;;;;;5096552;28;20457;-81
2024/02/23 06:23:23;;;;;;;3.97;1.13;;;5.70;99.90;;;;;;5096362;28;20474;-83
2024/02/23 06:25:50;;;;;;;3.83;1.43;;;5.70;99.90;;;;;;5092932;28;20450;-82
2024/02/23 06:28:16;;;;;;;2.60;1.23;;;5.70;99.90;;;;;;5092694;28;20567;-79
2024/02/23 06:30:45;;;;;;;3.50;1.10;;;5.70;99.90;;;;;;5088966;28;20468;-81
2024/02/23 06:33:11;;;;;;;5.07;2.37;;;5.70;99.90;;;;;;5095959;28;20475;-82
2024/02/23 06:35:38;;;;;;;3.13;1.00;;;5.80;99.90;;;;;;5094064;28;20535;-82
2024/02/23 06:38:06;;;;;;;2.33;1.10;;;5.90;99.90;;;;;;5094115;28;20467;-82
2024/02/23 06:40:33;;;;;;;5.13;1.10;;;5.90;99.90;;;;;;5086672;28;20445;-81
2024/02/23 06:43:00;;;;;;;5.73;1.20;;;5.90;99.90;;;;;;5094028;28;20551;-82
2024/02/23 06:45:27;;;;;;;2.37;0.90;;;5.80;99.90;;;;;;5094285;28;20445;-82
2024/02/23 06:47:55;;;;;;;6.10;1.30;;;5.80;99.90;;;;;;5093205;28;20500;-81
2024/02/23 06:50:22;;;;;;;3.83;1.20;;;5.80;99.90;;;;;;5095581;28;20574;-81
2024/02/23 06:52:49;;;;;;;3.50;1.33;;;5.80;99.90;;;;;;5095052;28;20545;-80
2024/02/23 06:55:16;;;;;;;2.40;0.90;;;5.80;99.90;;;;;;5093949;28;20551;-79
2024/02/23 06:57:43;;;;;;;4.60;1.20;;;5.80;99.90;;;;;;5088164;28;20552;-81
2024/02/23 07:00:11;;;;;;;3.87;1.00;;;5.90;99.90;;;;;;5094491;28;20499;-80
2024/02/23 07:02:38;;;;;;;6.90;1.37;;;5.90;99.90;;;;;;5087301;28;20499;-81
2024/02/23 07:05:07;;;;;;;5.00;1.10;;;5.90;99.90;;;;;;5085669;28;20867;-82
2024/02/23 07:07:35;;;;;;;4.10;1.10;;;5.90;99.90;;;;;;5083097;28;20454;-81
2024/02/23 07:10:02;;;;;;;7.60;1.60;;;5.90;99.90;;;;;;5087719;28;20489;-81
2024/02/23 07:12:29;;;;;;;3.67;1.00;;;5.80;99.90;;;;;;5088208;28;20476;-79
2024/02/23 07:14:56;;;;;;;5.33;1.47;;;5.80;99.90;;;;;;5084500;28;20946;-80
2024/02/23 07:17:22;;;;;;;3.53;1.10;;;5.90;99.90;;;;;;5086901;28;20457;-80
2024/02/23 07:19:50;;;;;;;3.00;1.03;;;5.90;99.90;;;;;;5084123;28;20863;-80
2024/02/23 07:22:20;;;;;;;2.60;0.80;;;5.90;99.90;;;;;;5086160;28;20507;-78
2024/02/23 07:24:47;;;;;;;3.20;1.43;;;5.90;99.90;;;;;;5085800;28;20494;-81
2024/02/23 07:27:13;;;;;;;6.70;1.30;;;6.00;99.90;;;;;;5086562;28;20441;-81
2024/02/23 07:29:40;;;;;;;6.17;1.20;;;6.00;99.90;;;;;;5083138;28;20874;-79
2024/02/23 07:32:07;;;;;;;3.00;1.13;;;6.00;99.90;;;;;;5086145;28;20480;-81
2024/02/23 07:34:34;;;;;;;3.03;0.90;;;6.00;99.90;;;;;;5082660;28;20550;-81
2024/02/23 07:37:01;;;;;;;4.60;1.20;;;6.10;99.90;;;;;;5085563;28;20454;-81
2024/02/23 07:39:29;;;;;;;3.70;1.20;;;6.20;99.90;;;;;;5087758;28;20437;-80
2024/02/23 07:41:56;;;;;;;2.73;0.97;;;6.20;99.90;;;;;;5083380;28;20486;-81
2024/02/23 07:44:24;;;;;;;3.13;1.10;;;6.20;99.90;;;;;;5085257;28;20464;-82
2024/02/23 07:46:52;;;;;;;2.23;1.03;;;6.20;99.90;;;;;;5085019;28;20821;-81
2024/02/23 07:49:19;;;;;;;4.73;0.80;;;6.20;99.90;;;;;;5089315;28;20582;-81
2024/02/23 07:51:46;;;;;;;2.60;1.10;;;6.20;99.90;;;;;;5080523;28;20493;-81
2024/02/23 07:54:13;;;;;;;2.17;0.93;;;6.30;99.90;;;;;;5087736;28;20445;-82
2024/02/23 07:56:41;;;;;;;2.30;1.20;;;6.30;99.90;;;;;;5088090;28;20528;-79
2024/02/23 07:59:07;;;;;;;1.90;0.90;;;6.40;99.90;;;;;;5089454;28;20442;-80
2024/02/23 08:01:35;;;;;;;3.50;1.00;;;6.60;99.90;;;;;;5091233;28;20448;-80
2024/02/23 08:04:02;;;;;;;4.77;1.37;;;6.80;99.90;;;;;;5091139;28;20450;-81
2024/02/23 08:06:29;;;;;;;2.47;1.00;;;6.90;99.90;;;;;;5088825;28;20536;-81
2024/02/23 08:08:56;;;;;;;2.70;1.53;;;7.00;99.90;;;;;;5085394;28;20929;-80
2024/02/23 08:11:23;;;;;;;1.87;1.00;;;7.10;99.90;;;;;;5088647;28;20453;-82
2024/02/23 08:13:51;;;;;;;5.83;1.10;;;7.20;99.90;;;;;;5088691;28;20531;-83
2024/02/23 08:16:18;;;;;;;2.73;1.40;;;7.20;99.90;;;;;;5086161;28;20530;-81
2024/02/23 08:18:45;;;;;;;2.07;0.90;;;7.40;99.90;;;;;;5089198;28;20888;-80
2024/02/23 08:21:12;;;;;;;2.80;0.90;;;7.20;99.90;;;;;;5088751;28;20482;-82
2024/02/23 08:23:39;;;;;;;5.43;1.30;;;7.10;99.90;;;;;;5090942;28;20498;-81
2024/02/23 08:26:07;;;;;;;6.50;1.00;;;7.20;99.90;;;;;;5087164;28;20526;-81
2024/02/23 08:28:34;;;;;;;2.67;1.10;;;7.20;99.90;;;;;;5084099;28;20442;-82
2024/02/23 08:31:02;;;;;;;3.97;1.10;;;7.20;99.90;;;;;;5088171;28;20454;-82
2024/02/23 08:33:29;;;;;;;3.20;1.40;;;7.40;99.90;;;;;;5088060;28;20466;-81
2024/02/23 08:35:55;;;;;;;2.60;0.83;;;7.50;99.90;;;;;;5087302;28;20955;-80
2024/02/23 08:38:22;;;;;;;4.83;1.43;;;7.60;99.90;;;;;;5091406;28;20476;-81
2024/02/23 08:40:50;;;;;;;2.20;1.00;;;7.80;99.90;;;;;;5090155;28;20475;-82
2024/02/23 08:43:17;;;;;;;3.63;1.10;;;7.80;99.90;;;;;;5088391;28;20477;-81
2024/02/23 08:45:44;;;;;;;4.37;1.30;;;7.70;99.90;;;;;;5087218;28;20449;-80
2024/02/23 08:48:14;;;;;;;4.23;1.20;;;7.80;99.90;;;;;;5090025;28;20451;-82
2024/02/23 08:50:41;;;;;;;2.17;1.10;;;7.90;99.90;;;;;;5089539;28;20502;-80
2024/02/23 08:53:08;;;;;;;3.07;1.67;;;8.10;99.90;;;;;;5089652;28;20474;-80
2024/02/23 08:55:35;;;;;;;3.13;1.23;;;8.40;99.90;;;;;;5090373;28;20924;-81
2024/02/23 08:58:02;;;;;;;9.03;1.00;;;8.70;99.90;;;;;;5089945;28;20450;-81
2024/02/23 09:00:29;;;;;;;2.67;1.00;;;9.00;99.90;;;;;;5097125;28;20920;-80
2024/02/23 09:02:55;;;;;;;2.20;1.27;;;9.10;99.90;;;;;;5101493;28;20507;-79
2024/02/23 09:05:23;;;;;;;3.67;1.40;;;8.70;99.90;;;;;;5098554;28;20544;-81
2024/02/23 09:07:50;;;;;;;2.90;1.00;;;8.50;99.90;;;;;;5088785;28;20461;-83
2024/02/23 09:10:17;;;;;;;3.50;1.20;;;8.20;99.90;;;;;;5091887;28;20490;-81
2024/02/23 09:12:44;;;;;;;5.77;1.10;;;8.10;99.90;;;;;;5089179;28;20483;-79
2024/02/23 09:15:11;;;;;;;3.37;1.17;;;8.20;99.90;;;;;;5090190;28;20553;-82
2024/02/23 09:17:40;;;;;;;3.10;1.10;;;8.10;99.90;;;;;;5088867;28;20896;-81
2024/02/23 09:20:08;;;;;;;3.50;1.40;;;8.20;99.90;;;;;;5090335;28;20463;-81
2024/02/23 09:22:36;;;;;;;3.97;1.33;;;8.40;99.90;;;;;;5089107;28;20476;-82
2024/02/23 09:25:05;;;;;;;3.43;1.20;;;8.40;99.90;;;;;;5088816;28;20465;-81
2024/02/23 09:27:32;;;;;;;4.30;2.20;;;8.40;99.90;;;;;;5089749;28;20538;-82
2024/02/23 09:29:59;;;;;;;3.33;1.00;;;8.30;99.90;;;;;;5085457;28;20831;-82
2024/02/23 09:32:26;;;;;;;4.33;1.07;;;8.30;99.90;;;;;;5089936;28;20480;-82
2024/02/23 09:34:53;;;;;;;2.47;1.00;;;8.50;99.90;;;;;;5088826;28;20458;-80
2024/02/23 09:37:20;;;;;;;5.33;1.67;;;8.60;99.90;;;;;;5085566;28;20504;-82
2024/02/23 09:39:48;;;;;;;5.90;1.20;;;8.50;99.90;;;;;;5088654;28;21046;-81
2024/02/23 09:42:17;;;;;;;5.13;1.20;;;8.40;99.90;;;;;;5087594;28;20467;-81
2024/02/23 09:44:46;;;;;;;4.83;1.20;;;8.50;99.90;;;;;;5089144;28;20455;-80
2024/02/23 09:47:14;;;;;;;3.60;1.17;;;8.60;99.90;;;;;;5086685;28;20475;-81
2024/02/23 09:49:41;;;;;;;3.40;1.07;;;8.70;99.90;;;;;;5087235;28;20542;-80
2024/02/23 09:52:09;;;;;;;3.80;0.90;;;8.80;99.90;;;;;;5088239;28;20594;-82
2024/02/23 09:54:37;;;;;;;5.03;1.03;;;8.80;99.90;;;;;;5089546;28;20447;-82
2024/02/23 09:57:08;;;;;;;4.73;0.93;;;9.00;99.90;;;;;;5087704;28;20577;-81
2024/02/23 09:59:35;;;;;;;3.67;1.50;;;9.10;99.90;;;;;;5086556;28;20441;-81
2024/02/23 10:02:04;;;;;;;2.10;0.93;;;9.10;99.90;;;;;;5086379;28;20476;-82
2024/02/23 10:04:31;;;;;;;6.73;2.03;;;9.20;99.90;;;;;;5088658;28;20448;-81
2024/02/23 10:06:58;;;;;;;2.53;1.00;;;9.10;99.90;;;;;;5089621;28;20503;-81
2024/02/23 10:09:24;;;;;;;2.77;0.97;;;8.80;99.90;;;;;;5088541;28;21017;-81
2024/02/23 10:11:54;;;;;;;4.13;1.07;;;9.00;99.90;;;;;;5080330;28;20485;-81
2024/02/23 10:14:22;;;;;;;3.67;1.20;;;9.10;99.90;;;;;;5081666;28;20836;-82
2024/02/23 10:16:53;;;;;;;3.40;1.10;;;9.20;99.90;;;;;;5086295;28;20457;-83
2024/02/23 10:19:20;;;;;;;5.43;1.30;;;9.20;99.90;;;;;;5092300;28;20457;-81
2024/02/23 10:21:47;;;;;;;5.13;1.50;;;9.30;99.90;;;;;;5090070;28;20612;-82
2024/02/23 10:24:14;;;;;;;3.37;1.00;;;9.50;99.90;;;;;;5092765;28;20901;-81
2024/02/23 10:26:41;;;;;;;4.93;1.10;;;9.60;99.90;;;;;;5080578;28;20449;-81
2024/02/23 10:29:08;;;;;;;3.67;1.53;;;9.60;99.90;;;;;;5086229;28;21042;-82
2024/02/23 10:31:37;;;;;;;4.37;1.00;;;9.70;99.90;;;;;;5095736;28;20537;-81
2024/02/23 10:34:09;;;;;;;4.53;1.10;;;9.70;99.90;;;;;;5091902;28;20499;-82
2024/02/23 10:36:39;;;;;;;2.03;0.80;;;9.60;99.90;;;;;;5084901;28;20928;-83
2024/02/23 10:39:09;;;;;;;5.00;0.70;;;9.60;99.90;;;;;;5094869;28;20552;-83
2024/02/23 10:41:37;;;;;;;2.33;0.90;;;9.50;99.90;;;;;;5088008;28;20885;-80
2024/02/23 10:44:05;;;;;;;2.53;0.93;;;9.10;99.90;;;;;;5095061;28;20990;-81
2024/02/23 10:46:33;;;;;;;2.77;0.90;;;9.10;99.90;;;;;;5086101;28;20454;-80
2024/02/23 10:49:02;;;;;;;1.90;0.87;;;9.30;99.90;;;;;;5095940;28;20459;-81
2024/02/23 10:51:29;;;;;;;7.07;1.07;;;9.50;99.90;;;;;;5096211;28;20864;-79
2024/02/23 10:53:57;;;;;;;3.37;1.13;;;9.50;99.90;;;;;;5096093;28;20459;-81
2024/02/23 10:56:25;;;;;;;2.70;1.20;;;9.40;99.90;;;;;;5086310;28;20470;-80
2024/02/23 10:58:52;;;;;;;4.03;1.00;;;9.30;99.90;;;;;;5089573;28;20538;-79
2024/02/23 11:01:21;;;;;;;2.23;0.80;;;9.50;99.90;;;;;;5094491;28;20543;-79
2024/02/23 11:03:50;;;;;;;3.60;0.70;;;9.70;99.90;;;;;;5094705;28;20500;-82
2024/02/23 11:06:20;;;;;;;3.40;1.00;;;10.20;99.90;;;;;;5090144;28;20472;-82
2024/02/23 11:08:48;;;;;;;2.97;0.90;;;10.60;99.90;;;;;;5089313;28;20450;-83
2024/02/23 11:11:17;;;;;;;1.80;0.90;;;11.90;99.90;;;;;;5091019;28;20489;-82
2024/02/23 11:13:45;;;;;;;3.20;1.20;;;12.40;99.90;;;;;;5091084;28;20523;-79
2024/02/23 11:16:21;;;;;;;2.57;0.80;;;13.20;99.90;;;;;;5095890;28;20899;-79
2024/02/23 11:18:48;;;;;;;2.80;0.90;;;14.60;97.10;;;;;;5084232;28;20800;-79
2024/02/23 11:21:15;;;;;;;2.33;1.30;;;14.50;96.00;;;;;;5090429;28;20533;-80
2024/02/23 11:23:44;;;;;;;2.43;1.37;;;13.10;94.20;;;;;;5093693;28;20568;-81
2024/02/23 11:26:11;;;;;;;3.90;1.10;;;12.00;94.50;;;;;;5095386;28;20559;-80
2024/02/23 11:28:48;;;;;;;2.53;0.80;;;11.20;95.70;;;;;;5090222;28;20541;-79
2024/02/23 11:31:15;;;;;;;1.83;0.70;;;10.50;97.10;;;;;;5101302;28;20481;-81
2024/02/23 11:33:49;;;;;;;4.50;1.10;;;10.30;97.30;;;;;;5099428;28;20469;-82
2024/02/23 11:36:24;;;;;;;2.00;0.90;;;10.10;98.70;;;;;;5096213;28;20523;-82
2024/02/23 11:38:55;;;;;;;5.30;1.00;;;9.90;99.90;;;;;;5094639;28;20457;-81
2024/02/23 11:41:23;;;;;;;3.63;0.77;;;10.00;99.90;;;;;;5100721;28;20442;-80
2024/02/23 11:43:51;;;;;;;2.77;1.00;;;10.00;99.90;;;;;;5101056;28;20962;-83
2024/02/23 11:46:18;;;;;;;1.80;0.80;;;9.80;99.90;;;;;;5092173;28;20533;-81
2024/02/23 11:48:46;;;;;;;5.17;0.80;;;9.80;99.90;;;;;;5103067;28;20942;-79
2024/02/23 11:51:13;;;;;;;1.67;0.70;;;9.80;99.90;;;;;;5100998;28;20829;-81
2024/02/23 11:53:40;;;;;;;3.57;1.00;;;9.90;99.90;;;;;;5100170;28;20510;-81
2024/02/23 11:56:09;;;;;;;3.50;0.83;;;10.00;99.90;;;;;;5095827;28;20541;-82
2024/02/23 11:58:36;;;;;;;4.03;1.50;;;9.90;99.90;;;;;;5101205;28;20465;-84
2024/02/23 12:01:03;;;;;;;4.70;1.20;;;9.70;99.90;;;;;;5100833;28;20528;-81
2024/02/23 12:03:31;;;;;;;3.03;0.90;;;9.60;99.90;;;;;;5099769;28;21002;-81
2024/02/23 12:05:58;;;;;;;2.70;0.77;;;9.50;99.90;;;;;;5095909;28;20461;-83
2024/02/23 12:08:27;;;;;;;4.30;1.57;;;9.50;99.90;;;;;;5090313;28;20446;-81
2024/02/23 12:10:54;;;;;;;3.00;0.70;;;9.50;99.90;;;;;;5089726;28;20493;-81
2024/02/23 12:13:23;;;;;;;1.60;0.80;;;9.50;99.90;;;;;;5083657;28;20481;-82
2024/02/23 12:15:53;;;;;;;4.33;1.20;;;9.50;99.90;;;;;;5102212;28;20874;-82
2024/02/23 12:18:23;;;;;;;2.40;0.90;;;9.40;99.90;;;;;;5103100;28;20452;-82
2024/02/23 12:20:51;;;;;;;2.33;0.90;;;9.40;99.90;;;;;;5106269;27;20477;-82
2024/02/23 12:23:18;;;;;;;3.03;0.80;;;9.40;99.90;;;;;;5104413;28;20535;-81
2024/02/23 12:25:54;;;;;;;2.27;0.80;;;9.40;99.90;;;;;;5099636;28;20517;-81
2024/02/23 12:28:24;;;;;;;5.23;1.20;;;9.40;99.90;;;;;;5101562;28;20442;-80
2024/02/23 12:31:00;;;;;;;1.73;1.03;;;9.20;99.90;;;;;;5102852;28;20580;-82
2024/02/23 12:33:30;;;;;;;3.60;1.00;;;9.10;99.90;;;;;;5105384;28;20514;-81
2024/02/23 12:35:57;;;;;;;2.70;0.87;;;9.10;99.90;;;;;;5095305;28;20469;-82
2024/02/23 12:38:24;;;;;;;1.80;0.83;;;9.10;99.90;;;;;;5114223;28;20531;-81
2024/02/23 12:40:51;;;;;;;2.57;0.87;;;9.20;99.90;;;;;;5118647;28;20521;-80
2024/02/23 12:43:18;;;;;;;2.33;1.10;;;9.30;99.90;;;;;;5105357;28;20563;-80
2024/02/23 12:45:48;;;;;;;5.00;1.50;;;9.30;99.90;;;;;;5109605;28;20445;-79
2024/02/23 12:48:16;;;;;;;1.80;0.80;;;9.30;99.90;;;;;;5109023;28;20444;-78
2024/02/23 12:50:44;;;;;;;3.30;1.00;;;9.50;99.90;;;;;;5103091;28;21027;-80
2024/02/23 12:53:12;;;;;;;2.60;0.87;;;9.80;99.90;;;;;;5100686;28;20473;-80
2024/02/23 12:55:39;;;;;;;3.60;0.80;;;9.90;99.90;;;;;;5092230;28;20455;-79